createdAt,value
2023-03-24T00:01:47.066Z,50.52
2023-03-24T00:04:13.574Z,50.55
2023-03-24T00:06:40.064Z,50.62
2023-03-24T00:09:06.710Z,50.51
2023-03-24T00:11:33.275Z,50.56
2023-03-24T00:13:59.812Z,50.44
2023-03-24T00:16:27.720Z,50.33
2023-03-24T00:18:54.512Z,50.21
2023-03-24T00:21:22.510Z,50.53
2023-03-24T00:23:49.059Z,50.31
2023-03-24T00:26:17.019Z,50.37
2023-03-24T00:28:49.090Z,50.20
2023-03-24T00:31:17.653Z,50.30
2023-03-24T00:33:46.868Z,50.17
2023-03-24T00:36:13.763Z,50.26
2023-03-24T00:38:41.430Z,50.34
2023-03-24T00:41:09.106Z,50.35
2023-03-24T00:43:35.658Z,50.15
2023-03-24T00:46:04.927Z,50.23
2023-03-24T00:48:32.135Z,50.28
2023-03-24T00:51:01.646Z,50.17
2023-03-24T00:53:28.343Z,50.30
2023-03-24T00:55:56.039Z,50.39
2023-03-24T00:58:22.782Z,50.25
2023-03-24T01:00:50.961Z,50.43
2023-03-24T01:03:18.655Z,50.10
2023-03-24T01:05:45.139Z,50.02
2023-03-24T01:08:12.896Z,50.06
2023-03-24T01:10:39.931Z,50.17
2023-03-24T01:13:06.502Z,50.15
2023-03-24T01:15:34.350Z,50.01
2023-03-24T01:18:00.894Z,50.24
2023-03-24T01:20:28.867Z,50.45
2023-03-24T01:22:55.399Z,50.13
2023-03-24T01:25:23.490Z,50.24
2023-03-24T01:27:51.581Z,50.19
2023-03-24T01:30:20.824Z,50.01
2023-03-24T01:32:47.593Z,50.13
2023-03-24T01:35:14.284Z,49.97
2023-03-24T01:37:40.928Z,50.18
2023-03-24T01:40:09.358Z,50.07
2023-03-24T01:42:38.866Z,49.93
2023-03-24T01:45:30.122Z,49.92
2023-03-24T01:47:56.859Z,49.90
2023-03-24T01:50:23.828Z,49.89
2023-03-24T01:52:50.363Z,49.85
2023-03-24T01:55:18.682Z,49.90
2023-03-24T01:57:51.531Z,49.89
2023-03-24T02:00:20.074Z,50.00
2023-03-24T02:02:50.329Z,50.06
2023-03-24T02:05:17.669Z,49.94
2023-03-24T02:07:50.612Z,49.97
2023-03-24T02:10:19.463Z,49.82
2023-03-24T02:12:47.666Z,49.93
2023-03-24T02:15:16.808Z,50.01
2023-03-24T02:17:56.544Z,50.17
2023-03-24T02:20:50.185Z,49.82
2023-03-24T02:23:34.786Z,49.89
2023-03-24T02:26:23.233Z,49.95
2023-03-24T02:29:02.407Z,49.95
2023-03-24T02:31:54.117Z,49.89
2023-03-24T02:34:44.041Z,49.96
2023-03-24T02:37:33.740Z,49.87
2023-03-24T02:40:14.813Z,50.05
2023-03-24T02:42:52.207Z,50.02
2023-03-24T02:45:27.685Z,50.16
2023-03-24T02:48:16.191Z,49.92
2023-03-24T02:50:49.385Z,49.89
2023-03-24T02:53:21.735Z,49.99
2023-03-24T02:55:53.668Z,50.02
2023-03-24T02:58:28.828Z,49.92
2023-03-24T03:00:59.947Z,49.97
2023-03-24T03:03:31.803Z,50.07
2023-03-24T03:06:02.778Z,49.97
2023-03-24T03:08:32.111Z,50.16
2023-03-24T03:11:03.398Z,50.04
2023-03-24T03:13:34.275Z,49.83
2023-03-24T03:16:07.371Z,49.93
2023-03-24T03:18:40.654Z,49.78
2023-03-24T03:21:12.231Z,50.17
2023-03-24T03:23:43.645Z,49.69
2023-03-24T03:26:15.677Z,49.78
2023-03-24T03:28:48.286Z,49.78
2023-03-24T03:31:19.063Z,49.98
2023-03-24T03:33:50.514Z,49.97
2023-03-24T03:36:24.358Z,49.86
2023-03-24T03:38:57.641Z,49.76
2023-03-24T03:41:25.463Z,49.92
2023-03-24T03:43:52.993Z,50.04
2023-03-24T03:46:19.623Z,49.71
2023-03-24T03:48:46.405Z,49.59
2023-03-24T03:51:14.779Z,49.35
2023-03-24T03:53:47.643Z,49.10
2023-03-24T03:56:15.296Z,49.13
2023-03-24T03:58:43.118Z,48.80
2023-03-24T04:01:13.162Z,48.61
2023-03-24T04:03:58.320Z,48.84
2023-03-24T04:06:33.920Z,48.50
2023-03-24T04:09:09.763Z,48.62
2023-03-24T04:11:50.325Z,48.73
2023-03-24T04:14:36.679Z,48.70
2023-03-24T04:17:11.293Z,48.51
2023-03-24T04:19:52.320Z,48.47
2023-03-24T04:22:27.172Z,48.47
2023-03-24T04:24:58.976Z,48.24
2023-03-24T04:27:33.818Z,48.18
2023-03-24T04:30:13.235Z,48.14
2023-03-24T04:32:46.975Z,48.25
2023-03-24T04:35:21.077Z,48.16
2023-03-24T04:37:48.737Z,48.05
2023-03-24T04:40:17.760Z,48.04
2023-03-24T04:42:47.526Z,47.92
2023-03-24T04:45:16.762Z,47.93
2023-03-24T04:47:47.631Z,48.04
2023-03-24T04:50:26.645Z,47.75
2023-03-24T04:52:53.143Z,47.82
2023-03-24T04:55:33.372Z,47.72
2023-03-24T04:57:59.847Z,47.75
2023-03-24T05:00:27.701Z,47.75
2023-03-24T05:02:54.215Z,47.71
2023-03-24T05:05:20.902Z,47.74
2023-03-24T05:07:47.394Z,47.63
2023-03-24T05:10:14.113Z,47.65
2023-03-24T05:12:40.641Z,47.49
2023-03-24T05:15:07.535Z,47.56
2023-03-24T05:17:35.327Z,47.46
2023-03-24T05:20:01.812Z,47.74
2023-03-24T05:22:28.296Z,47.42
2023-03-24T05:24:54.770Z,47.51
2023-03-24T05:27:21.232Z,47.46
2023-03-24T05:29:47.721Z,47.52
2023-03-24T05:32:14.173Z,47.46
2023-03-24T05:34:41.987Z,47.43
2023-03-24T05:37:08.523Z,47.30
2023-03-24T05:39:35.010Z,47.35
2023-03-24T05:42:01.637Z,47.14
2023-03-24T05:44:28.128Z,47.29
2023-03-24T05:46:54.660Z,46.97
2023-03-24T05:49:21.249Z,47.01
2023-03-24T05:51:49.063Z,47.01
2023-03-24T05:54:15.532Z,46.95
2023-03-24T05:56:42.082Z,47.14
2023-03-24T05:59:08.606Z,47.22
2023-03-24T06:01:35.048Z,46.97
2023-03-24T06:04:01.611Z,47.06
2023-03-24T06:06:28.332Z,46.80
2023-03-24T06:08:56.199Z,47.06
2023-03-24T06:11:22.667Z,46.94
2023-03-24T06:13:49.396Z,46.92
2023-03-24T06:16:15.843Z,46.85
2023-03-24T06:18:42.322Z,46.90
2023-03-24T06:21:08.788Z,46.82
2023-03-24T06:23:35.270Z,47.02
2023-03-24T06:26:09.004Z,47.31
2023-03-24T06:28:35.492Z,48.25
2023-03-24T06:31:05.108Z,47.87
2023-03-24T06:33:32.498Z,47.29
2023-03-24T06:35:58.956Z,47.28
2023-03-24T06:38:25.422Z,47.04
2023-03-24T06:40:51.945Z,47.01
2023-03-24T06:43:20.134Z,47.08
2023-03-24T06:45:46.971Z,47.24
2023-03-24T06:48:13.649Z,47.04
2023-03-24T06:50:41.319Z,46.97
2023-03-24T06:53:07.934Z,46.95
2023-03-24T06:55:34.498Z,46.81
2023-03-24T06:58:01.147Z,46.91
2023-03-24T07:00:29.079Z,46.77
2023-03-24T07:02:55.655Z,46.60
2023-03-24T07:05:22.618Z,46.97
2023-03-24T07:10:19.002Z,47.55
2023-03-24T07:12:45.538Z,47.22
2023-03-24T07:15:12.079Z,47.25
2023-03-24T07:17:41.276Z,47.23
2023-03-24T07:20:08.593Z,47.51
2023-03-24T07:22:35.700Z,48.50
2023-03-24T07:25:02.557Z,48.50
2023-03-24T07:27:29.022Z,48.28
2023-03-24T07:29:55.642Z,48.21
2023-03-24T07:32:22.228Z,48.30
2023-03-24T07:34:50.366Z,47.87
2023-03-24T07:37:17.032Z,47.76
2023-03-24T07:39:43.566Z,47.58
2023-03-24T07:42:11.730Z,47.45
2023-03-24T07:44:39.697Z,47.49
2023-03-24T07:47:06.372Z,47.62
2023-03-24T07:49:32.985Z,47.95
2023-03-24T07:52:00.746Z,47.75
2023-03-24T07:54:27.304Z,47.41
2023-03-24T07:56:53.791Z,47.92
2023-03-24T07:59:20.310Z,48.50
2023-03-24T08:01:48.526Z,48.47
2023-03-24T08:04:15.372Z,48.32
2023-03-24T08:06:43.097Z,47.87
2023-03-24T08:09:10.970Z,48.28
2023-03-24T08:11:37.489Z,48.63
2023-03-24T08:14:05.746Z,48.72
2023-03-24T08:16:33.976Z,48.88
2023-03-24T08:19:01.846Z,48.89
2023-03-24T08:21:28.471Z,47.09
2023-03-24T08:23:54.943Z,46.63
2023-03-24T08:26:22.691Z,47.00
2023-03-24T08:28:49.108Z,47.94
2023-03-24T08:31:15.857Z,48.92
2023-03-24T08:33:42.332Z,49.13
2023-03-24T08:36:09.032Z,48.34
2023-03-24T08:38:35.647Z,47.93
2023-03-24T08:41:03.589Z,47.75
2023-03-24T08:43:31.439Z,47.81
2023-03-24T08:45:58.449Z,47.85
2023-03-24T08:48:25.627Z,47.83
2023-03-24T08:50:52.144Z,47.66
2023-03-24T08:53:19.093Z,47.77
2023-03-24T08:55:45.752Z,47.69
2023-03-24T08:58:14.867Z,47.75
2023-03-24T09:00:43.557Z,49.05
2023-03-24T09:03:13.039Z,49.27
2023-03-24T09:05:44.774Z,48.82
2023-03-24T09:08:11.969Z,48.52
2023-03-24T09:10:38.843Z,48.44
2023-03-24T09:13:05.414Z,48.29
2023-03-24T09:15:32.462Z,48.38
2023-03-24T09:18:00.466Z,48.35
2023-03-24T09:20:27.169Z,48.56
2023-03-24T09:22:53.665Z,48.88
2023-03-24T09:25:21.536Z,47.51
2023-03-24T09:27:48.533Z,46.66
2023-03-24T09:30:17.824Z,47.18
2023-03-24T09:32:45.124Z,47.92
2023-03-24T09:35:13.505Z,47.14
2023-03-24T09:37:40.793Z,46.64
2023-03-24T09:40:08.028Z,46.26
2023-03-24T09:42:38.707Z,45.95
2023-03-24T09:45:13.118Z,46.12
2023-03-24T09:47:42.777Z,45.58
2023-03-24T09:50:22.795Z,47.65
2023-03-24T09:52:54.125Z,49.06
2023-03-24T09:55:24.772Z,49.64
2023-03-24T09:57:52.653Z,49.31
2023-03-24T10:00:22.256Z,49.70
2023-03-24T10:02:52.129Z,50.18
2023-03-24T10:05:26.972Z,50.40
2023-03-24T10:07:55.931Z,50.45
2023-03-24T10:10:33.582Z,50.49
2023-03-24T10:13:06.744Z,50.45
2023-03-24T10:15:40.221Z,50.62
2023-03-24T10:18:23.310Z,50.59
2023-03-24T10:20:56.110Z,50.68
2023-03-24T10:23:31.429Z,50.68
2023-03-24T10:26:09.433Z,50.81
2023-03-24T10:28:43.200Z,50.55
2023-03-24T10:31:13.349Z,51.10
2023-03-24T10:33:42.988Z,51.86
2023-03-24T10:36:13.620Z,50.50
2023-03-24T10:38:40.742Z,52.46
2023-03-24T10:41:07.392Z,52.20
2023-03-24T10:43:33.928Z,49.62
2023-03-24T10:46:02.148Z,48.31
2023-03-24T10:48:43.355Z,47.94
2023-03-24T10:51:17.257Z,48.63
2023-03-24T10:53:44.042Z,48.75
2023-03-24T10:56:16.569Z,47.73
2023-03-24T10:58:44.839Z,47.04
2023-03-24T11:01:23.803Z,46.75
2023-03-24T11:03:51.053Z,46.78
2023-03-24T11:06:21.133Z,46.56
2023-03-24T11:08:48.040Z,46.36
2023-03-24T11:11:29.485Z,46.54
2023-03-24T11:13:57.671Z,46.48
2023-03-24T11:16:28.885Z,46.52
2023-03-24T11:18:57.680Z,47.35
2023-03-24T11:21:26.882Z,47.06
2023-03-24T11:23:53.428Z,46.71
2023-03-24T11:26:22.283Z,46.32
2023-03-24T11:28:52.365Z,46.31
2023-03-24T11:31:22.782Z,46.08
2023-03-24T11:33:57.228Z,46.15
2023-03-24T11:36:38.633Z,46.15
2023-03-24T11:39:11.758Z,45.98
2023-03-24T11:41:41.537Z,45.76
2023-03-24T11:44:17.672Z,46.37
2023-03-24T11:46:46.335Z,47.27
2023-03-24T11:49:18.214Z,47.39
2023-03-24T11:51:49.220Z,46.46
2023-03-24T11:54:18.597Z,45.85
2023-03-24T11:56:47.796Z,45.68
2023-03-24T11:59:28.237Z,46.42
2023-03-24T12:02:01.248Z,47.72
2023-03-24T12:04:35.553Z,48.52
2023-03-24T12:07:22.564Z,48.59
2023-03-24T12:09:56.516Z,48.65
2023-03-24T12:12:35.745Z,47.76
2023-03-24T12:15:28.120Z,46.97
2023-03-24T12:18:09.649Z,48.26
2023-03-24T12:20:44.285Z,47.66
2023-03-24T12:23:18.444Z,48.12
2023-03-24T12:26:00.590Z,48.39
2023-03-24T12:28:43.360Z,48.38
2023-03-24T12:31:26.494Z,47.93
2023-03-24T12:34:06.552Z,48.13
2023-03-24T12:36:46.303Z,48.03
2023-03-24T12:39:16.576Z,47.87
2023-03-24T12:41:58.005Z,47.83
2023-03-24T12:44:41.894Z,48.39
2023-03-24T12:47:24.465Z,48.20
2023-03-24T12:50:12.109Z,48.44
2023-03-24T12:53:07.621Z,48.32
2023-03-24T12:55:43.177Z,48.70
2023-03-24T12:58:18.168Z,49.32
2023-03-24T13:00:52.085Z,49.81
2023-03-24T13:03:27.911Z,49.81
2023-03-24T13:06:02.112Z,49.88
2023-03-24T13:08:37.434Z,50.04
2023-03-24T13:11:10.822Z,49.82
2023-03-24T13:13:43.452Z,49.69
2023-03-24T13:16:15.561Z,50.10
2023-03-24T13:18:45.690Z,50.79
2023-03-24T13:21:16.117Z,52.44
2023-03-24T13:23:49.177Z,51.98
2023-03-24T13:26:26.113Z,49.10
2023-03-24T13:29:04.490Z,49.07
2023-03-24T13:31:36.564Z,51.18
2023-03-24T13:34:06.011Z,52.90
2023-03-24T13:36:44.181Z,53.00
2023-03-24T13:39:14.212Z,52.08
2023-03-24T13:41:48.655Z,52.30
2023-03-24T13:44:19.581Z,52.22
2023-03-24T13:47:02.743Z,51.97
2023-03-24T13:49:31.317Z,51.86
2023-03-24T13:52:01.941Z,52.12
2023-03-24T13:54:29.057Z,51.77
2023-03-24T13:57:04.998Z,51.28
2023-03-24T13:59:32.967Z,51.37
2023-03-24T14:02:19.425Z,51.12
2023-03-24T14:04:47.997Z,50.78
2023-03-24T14:07:33.246Z,50.39
2023-03-24T14:10:01.742Z,50.01
2023-03-24T14:12:32.795Z,50.31
2023-03-24T14:15:13.644Z,50.67
2023-03-24T14:17:42.777Z,51.49
2023-03-24T14:20:12.590Z,51.45
2023-03-24T14:22:41.600Z,51.38
2023-03-24T14:25:22.729Z,51.58
2023-03-24T14:27:52.707Z,51.52
2023-03-24T14:30:21.824Z,51.74
2023-03-24T14:32:50.950Z,51.52
2023-03-24T14:35:22.740Z,51.54
2023-03-24T14:37:53.929Z,51.38
2023-03-24T14:40:29.543Z,51.06
2023-03-24T14:43:11.996Z,50.94
2023-03-24T14:45:50.969Z,51.08
2023-03-24T14:48:36.395Z,51.50
2023-03-24T14:51:12.241Z,51.72
2023-03-24T14:53:39.292Z,51.22
2023-03-24T14:56:13.106Z,51.56
2023-03-24T14:58:42.950Z,51.33
2023-03-24T15:01:10.830Z,51.02
2023-03-24T15:03:44.403Z,50.95
2023-03-24T15:06:14.688Z,50.81
2023-03-24T15:08:45.766Z,50.79
2023-03-24T15:11:16.326Z,50.84
2023-03-24T15:13:47.959Z,50.76
2023-03-24T15:16:20.841Z,50.88
2023-03-24T15:19:00.718Z,50.72
2023-03-24T15:21:32.938Z,50.56
2023-03-24T15:24:00.669Z,50.46
2023-03-24T15:26:29.076Z,50.76
2023-03-24T15:28:59.674Z,50.53
2023-03-24T15:31:26.922Z,50.69
2023-03-24T15:33:53.570Z,50.68
2023-03-24T15:36:22.649Z,50.76
2023-03-24T15:38:51.215Z,50.68
2023-03-24T15:41:20.336Z,50.57
2023-03-24T15:43:50.430Z,50.46
2023-03-24T15:46:25.108Z,50.08
2023-03-24T15:48:52.875Z,49.93
2023-03-24T15:51:20.003Z,49.59
2023-03-24T15:53:54.814Z,49.58
2023-03-24T15:56:26.973Z,49.42
2023-03-24T15:58:55.951Z,49.53
2023-03-24T16:01:27.997Z,49.35
2023-03-24T16:03:54.970Z,48.83
2023-03-24T16:06:27.629Z,48.19
2023-03-24T16:08:54.202Z,47.65
2023-03-24T16:11:21.194Z,47.24
2023-03-24T16:13:47.677Z,47.37
2023-03-24T16:16:24.318Z,47.22
2023-03-24T16:18:53.206Z,47.38
2023-03-24T16:21:21.868Z,47.50
2023-03-24T16:23:49.522Z,47.49
2023-03-24T16:26:18.978Z,47.31
2023-03-24T16:28:46.167Z,47.09
2023-03-24T16:31:20.443Z,47.50
2023-03-24T16:33:47.233Z,47.21
2023-03-24T16:36:16.292Z,47.22
2023-03-24T16:38:43.193Z,47.23
2023-03-24T16:41:09.876Z,47.18
2023-03-24T16:43:36.427Z,47.46
2023-03-24T16:46:05.485Z,47.15
2023-03-24T16:48:32.170Z,47.45
2023-03-24T16:50:58.709Z,47.42
2023-03-24T16:53:26.530Z,47.37
2023-03-24T16:55:53.041Z,47.35
2023-03-24T16:58:19.614Z,47.33
2023-03-24T17:00:46.189Z,47.27
2023-03-24T17:03:12.876Z,47.31
2023-03-24T17:05:43.374Z,47.46
2023-03-24T17:08:09.965Z,47.45
2023-03-24T17:10:38.369Z,47.65
2023-03-24T17:13:04.776Z,47.41
2023-03-24T17:15:31.478Z,47.78
2023-03-24T17:17:57.958Z,47.59
2023-03-24T17:20:24.670Z,47.44
2023-03-24T17:22:52.635Z,47.58
2023-03-24T17:25:21.286Z,47.60
2023-03-24T17:27:49.462Z,47.50
2023-03-24T17:30:18.646Z,47.56
2023-03-24T17:32:45.152Z,47.59
2023-03-24T17:35:14.267Z,47.52
2023-03-24T17:37:40.700Z,47.56
2023-03-24T17:40:09.452Z,47.58
2023-03-24T17:42:37.148Z,47.39
2023-03-24T17:45:06.465Z,47.35
2023-03-24T17:47:33.073Z,47.44
2023-03-24T17:49:59.621Z,47.53
2023-03-24T17:52:26.095Z,47.35
2023-03-24T17:54:52.578Z,47.48
2023-03-24T17:57:19.053Z,47.44
2023-03-24T17:59:45.515Z,47.71
2023-03-24T18:02:13.676Z,47.37
2023-03-24T18:04:40.121Z,47.20
2023-03-24T18:07:06.739Z,47.19
2023-03-24T18:09:33.380Z,47.22
2023-03-24T18:12:00.010Z,47.21
2023-03-24T18:14:26.490Z,47.23
2023-03-24T18:16:52.954Z,47.60
2023-03-24T18:19:20.835Z,47.10
2023-03-24T18:21:47.354Z,47.08
2023-03-24T18:24:13.930Z,47.11
2023-03-24T18:26:40.669Z,47.04
2023-03-24T18:29:07.300Z,47.03
2023-03-24T18:31:34.363Z,46.96
2023-03-24T18:34:01.258Z,47.18
2023-03-24T18:36:29.592Z,47.05
2023-03-24T18:38:57.199Z,47.16
2023-03-24T18:41:24.235Z,46.92
2023-03-24T18:43:50.791Z,46.98
2023-03-24T18:46:17.535Z,46.84
2023-03-24T18:48:44.298Z,46.75
2023-03-24T18:51:11.941Z,46.83
2023-03-24T18:53:39.863Z,46.74
2023-03-24T18:56:07.912Z,46.90
2023-03-24T18:58:34.742Z,47.05
2023-03-24T19:01:05.874Z,46.64
2023-03-24T19:03:32.551Z,46.52
2023-03-24T19:06:00.823Z,46.66
2023-03-24T19:08:27.362Z,46.70
2023-03-24T19:10:55.831Z,46.97
2023-03-24T19:13:22.308Z,46.73
2023-03-24T19:15:51.768Z,46.75
2023-03-24T19:18:18.428Z,46.61
2023-03-24T19:20:45.001Z,46.66
2023-03-24T19:23:11.470Z,46.51
2023-03-24T19:25:38.152Z,46.71
2023-03-24T19:28:06.092Z,46.77
2023-03-24T19:30:32.571Z,46.64
2023-03-24T19:32:59.045Z,46.67
2023-03-24T19:35:25.560Z,46.68
2023-03-24T19:37:52.115Z,46.66
2023-03-24T19:40:18.733Z,46.43
2023-03-24T19:42:45.358Z,46.63
2023-03-24T19:45:14.946Z,46.23
2023-03-24T19:47:41.629Z,46.11
2023-03-24T19:50:09.379Z,46.46
2023-03-24T19:52:35.891Z,46.44
2023-03-24T19:55:02.484Z,46.40
2023-03-24T19:57:29.049Z,46.16
2023-03-24T19:59:55.640Z,46.36
2023-03-24T20:02:23.467Z,46.41
2023-03-24T20:04:50.605Z,46.36
2023-03-24T20:07:17.233Z,46.34
2023-03-24T20:09:43.682Z,46.30
2023-03-24T20:12:10.107Z,46.42
2023-03-24T20:14:36.702Z,46.12
2023-03-24T20:17:03.260Z,46.33
2023-03-24T20:19:31.551Z,46.23
2023-03-24T20:21:58.030Z,46.31
2023-03-24T20:24:24.494Z,46.34
2023-03-24T20:26:51.006Z,46.39
2023-03-24T20:29:17.479Z,46.07
2023-03-24T20:31:44.046Z,46.07
2023-03-24T20:34:10.803Z,46.09
2023-03-24T20:36:38.574Z,46.25
2023-03-24T20:39:05.434Z,46.27
2023-03-24T20:41:31.958Z,46.26
2023-03-24T20:43:58.396Z,46.25
2023-03-24T20:46:24.983Z,46.18
2023-03-24T20:48:51.518Z,46.15
2023-03-24T20:51:18.123Z,46.05
2023-03-24T20:53:46.780Z,46.16
2023-03-24T20:56:14.884Z,45.78
2023-03-24T20:58:42.967Z,45.71
2023-03-24T21:01:12.330Z,45.93
2023-03-24T21:03:38.897Z,46.06
2023-03-24T21:06:05.850Z,46.15
2023-03-24T21:08:32.297Z,46.40
2023-03-24T21:11:00.058Z,46.24
2023-03-24T21:13:37.070Z,46.45
2023-03-24T21:16:06.913Z,46.48
2023-03-24T21:18:35.867Z,46.28
2023-03-24T21:21:02.301Z,46.46
2023-03-24T21:23:29.609Z,46.46
2023-03-24T21:25:56.087Z,46.38
2023-03-24T21:28:24.186Z,46.36
2023-03-24T21:30:50.669Z,46.53
2023-03-24T21:33:17.170Z,46.20
2023-03-24T21:35:43.638Z,46.73
2023-03-24T21:38:10.315Z,46.47
2023-03-24T21:40:36.761Z,46.47
2023-03-24T21:43:03.222Z,46.55
2023-03-24T21:45:32.422Z,46.57
2023-03-24T21:47:59.641Z,46.42
2023-03-24T21:50:26.521Z,46.49
2023-03-24T21:52:53.768Z,46.53
2023-03-24T21:55:22.301Z,46.53
2023-03-24T21:57:50.186Z,46.69
2023-03-24T22:00:18.631Z,46.61
2023-03-24T22:02:48.915Z,46.48
2023-03-24T22:05:17.271Z,46.59
2023-03-24T22:07:44.594Z,46.65
2023-03-24T22:10:11.515Z,46.64
2023-03-24T22:12:37.998Z,46.57
2023-03-24T22:15:05.423Z,46.56
2023-03-24T22:17:31.920Z,46.53
2023-03-24T22:19:59.712Z,46.61
2023-03-24T22:22:26.266Z,46.56
2023-03-24T22:24:52.817Z,46.65
2023-03-24T22:27:19.484Z,46.62
2023-03-24T22:29:45.891Z,46.58
2023-03-24T22:32:12.385Z,46.52
2023-03-24T22:34:38.852Z,46.69
2023-03-24T22:37:06.705Z,46.48
2023-03-24T22:39:33.255Z,46.63
2023-03-24T22:41:59.789Z,46.67
2023-03-24T22:44:26.417Z,46.71
2023-03-24T22:46:53.027Z,46.63
2023-03-24T22:49:19.821Z,46.68
2023-03-24T22:51:46.361Z,46.45
2023-03-24T22:54:14.178Z,46.69
2023-03-24T22:56:40.680Z,46.66
2023-03-24T22:59:07.290Z,46.65
2023-03-24T23:01:33.851Z,46.72
2023-03-24T23:04:00.335Z,46.53
2023-03-24T23:06:26.963Z,46.61
2023-03-24T23:08:53.642Z,46.58
2023-03-24T23:11:21.519Z,46.81
2023-03-24T23:13:48.002Z,46.55
2023-03-24T23:16:14.503Z,46.52
2023-03-24T23:18:40.979Z,46.69
2023-03-24T23:21:10.216Z,46.55
2023-03-24T23:23:38.555Z,46.75
2023-03-24T23:26:06.498Z,46.40
2023-03-24T23:28:34.934Z,46.70
2023-03-24T23:31:01.655Z,46.53
2023-03-24T23:33:28.330Z,46.65
2023-03-24T23:35:57.007Z,46.81
2023-03-24T23:38:23.555Z,46.71
2023-03-24T23:40:50.113Z,46.69
2023-03-24T23:43:16.566Z,46.49
2023-03-24T23:45:46.021Z,46.72
2023-03-24T23:48:12.569Z,46.58
2023-03-24T23:50:39.007Z,46.75
2023-03-24T23:53:05.451Z,46.71
2023-03-24T23:55:32.017Z,46.75
2023-03-24T23:57:58.541Z,46.79
